sensor_id;sensor_type;location;lat;lon;timestamp;temperature;humidity
53264;DHT22;39153;52.680;6.172;2024-03-25T00:02:09;5.30;99.90
53264;DHT22;39153;52.680;6.172;2024-03-25T00:04:35;5.40;99.90
53264;DHT22;39153;52.680;6.172;2024-03-25T00:07:01;5.30;99.90
53264;DHT22;39153;52.680;6.172;2024-03-25T00:09:27;5.40;99.90
53264;DHT22;39153;52.680;6.172;2024-03-25T00:11:53;5.40;99.90
53264;DHT22;39153;52.680;6.172;2024-03-25T00:14:22;5.40;99.90
53264;DHT22;39153;52.680;6.172;2024-03-25T00:16:49;5.40;99.90
53264;DHT22;39153;52.680;6.172;2024-03-25T00:19:14;5.40;99.90
53264;DHT22;39153;52.680;6.172;2024-03-25T00:21:40;5.40;99.90
53264;DHT22;39153;52.680;6.172;2024-03-25T00:24:07;5.70;99.90
53264;DHT22;39153;52.680;6.172;2024-03-25T00:26:33;5.50;99.90
53264;DHT22;39153;52.680;6.172;2024-03-25T00:28:59;5.40;99.90
53264;DHT22;39153;52.680;6.172;2024-03-25T00:31:24;5.40;99.90
53264;DHT22;39153;52.680;6.172;2024-03-25T00:33:50;5.50;99.90
53264;DHT22;39153;52.680;6.172;2024-03-25T00:36:16;5.50;99.90
53264;DHT22;39153;52.680;6.172;2024-03-25T00:38:41;5.50;99.90
53264;DHT22;39153;52.680;6.172;2024-03-25T00:41:08;5.50;99.90
53264;DHT22;39153;52.680;6.172;2024-03-25T00:43:34;5.50;99.90
53264;DHT22;39153;52.680;6.172;2024-03-25T00:46:00;5.40;99.90
53264;DHT22;39153;52.680;6.172;2024-03-25T00:48:26;5.50;99.90
53264;DHT22;39153;52.680;6.172;2024-03-25T00:50:51;5.60;99.90
53264;DHT22;39153;52.680;6.172;2024-03-25T00:53:17;5.50;99.90
53264;DHT22;39153;52.680;6.172;2024-03-25T00:55:44;5.40;99.90
53264;DHT22;39153;52.680;6.172;2024-03-25T00:58:09;5.30;99.90
53264;DHT22;39153;52.680;6.172;2024-03-25T01:00:35;5.40;99.90
53264;DHT22;39153;52.680;6.172;2024-03-25T01:03:01;5.30;99.90
53264;DHT22;39153;52.680;6.172;2024-03-25T01:05:27;5.30;99.90
53264;DHT22;39153;52.680;6.172;2024-03-25T01:07:53;5.40;99.90
53264;DHT22;39153;52.680;6.172;2024-03-25T01:10:18;5.30;99.90
53264;DHT22;39153;52.680;6.172;2024-03-25T01:12:44;5.10;99.90
53264;DHT22;39153;52.680;6.172;2024-03-25T01:15:11;5.40;99.90
53264;DHT22;39153;52.680;6.172;2024-03-25T01:17:37;5.50;99.90
53264;DHT22;39153;52.680;6.172;2024-03-25T01:20:03;5.20;99.90
53264;DHT22;39153;52.680;6.172;2024-03-25T01:22:30;5.30;99.90
53264;DHT22;39153;52.680;6.172;2024-03-25T01:24:57;5.30;99.90
53264;DHT22;39153;52.680;6.172;2024-03-25T01:27:23;5.30;99.90
53264;DHT22;39153;52.680;6.172;2024-03-25T01:29:48;5.10;99.90
53264;DHT22;39153;52.680;6.172;2024-03-25T01:32:14;5.30;99.90
53264;DHT22;39153;52.680;6.172;2024-03-25T01:34:40;5.40;99.90
53264;DHT22;39153;52.680;6.172;2024-03-25T01:37:05;5.30;99.90
53264;DHT22;39153;52.680;6.172;2024-03-25T01:39:31;5.40;99.90
53264;DHT22;39153;52.680;6.172;2024-03-25T01:41:57;5.40;99.90
53264;DHT22;39153;52.680;6.172;2024-03-25T01:44:23;5.70;99.90
53264;DHT22;39153;52.680;6.172;2024-03-25T01:46:48;5.50;99.90
53264;DHT22;39153;52.680;6.172;2024-03-25T01:49:14;5.80;99.90
53264;DHT22;39153;52.680;6.172;2024-03-25T01:51:40;5.60;99.90
53264;DHT22;39153;52.680;6.172;2024-03-25T01:54:07;5.60;99.90
53264;DHT22;39153;52.680;6.172;2024-03-25T01:56:35;5.70;99.90
53264;DHT22;39153;52.680;6.172;2024-03-25T01:59:02;5.60;99.90
53264;DHT22;39153;52.680;6.172;2024-03-25T02:01:29;5.50;99.90
53264;DHT22;39153;52.680;6.172;2024-03-25T02:03:55;5.70;99.90
53264;DHT22;39153;52.680;6.172;2024-03-25T02:06:21;5.40;99.90
53264;DHT22;39153;52.680;6.172;2024-03-25T02:08:48;5.30;99.90
53264;DHT22;39153;52.680;6.172;2024-03-25T02:11:15;5.30;99.90
53264;DHT22;39153;52.680;6.172;2024-03-25T02:13:41;5.30;99.90
53264;DHT22;39153;52.680;6.172;2024-03-25T02:16:07;5.20;99.90
53264;DHT22;39153;52.680;6.172;2024-03-25T02:18:33;5.10;99.90
53264;DHT22;39153;52.680;6.172;2024-03-25T02:20:59;5.30;99.90
53264;DHT22;39153;52.680;6.172;2024-03-25T02:23:26;5.10;99.90
53264;DHT22;39153;52.680;6.172;2024-03-25T02:25:53;5.10;99.90
53264;DHT22;39153;52.680;6.172;2024-03-25T02:28:19;5.20;99.90
53264;DHT22;39153;52.680;6.172;2024-03-25T02:30:45;5.10;99.90
53264;DHT22;39153;52.680;6.172;2024-03-25T02:33:11;5.10;99.90
53264;DHT22;39153;52.680;6.172;2024-03-25T02:35:38;4.90;99.90
53264;DHT22;39153;52.680;6.172;2024-03-25T02:38:05;5.00;99.90
53264;DHT22;39153;52.680;6.172;2024-03-25T02:40:31;5.10;99.90
53264;DHT22;39153;52.680;6.172;2024-03-25T02:42:57;5.10;99.90
53264;DHT22;39153;52.680;6.172;2024-03-25T02:45:23;5.20;99.90
53264;DHT22;39153;52.680;6.172;2024-03-25T02:47:50;5.10;99.90
53264;DHT22;39153;52.680;6.172;2024-03-25T02:50:16;5.10;99.90
53264;DHT22;39153;52.680;6.172;2024-03-25T02:52:42;5.10;99.90
53264;DHT22;39153;52.680;6.172;2024-03-25T02:55:07;5.50;99.90
53264;DHT22;39153;52.680;6.172;2024-03-25T02:57:33;5.10;99.90
53264;DHT22;39153;52.680;6.172;2024-03-25T02:59:59;5.20;99.90
53264;DHT22;39153;52.680;6.172;2024-03-25T03:02:24;5.30;99.90
53264;DHT22;39153;52.680;6.172;2024-03-25T03:04:50;5.10;99.90
53264;DHT22;39153;52.680;6.172;2024-03-25T03:07:16;5.30;99.90
53264;DHT22;39153;52.680;6.172;2024-03-25T03:09:42;5.30;99.90
53264;DHT22;39153;52.680;6.172;2024-03-25T03:12:08;5.20;99.90
53264;DHT22;39153;52.680;6.172;2024-03-25T03:14:33;5.20;99.90
53264;DHT22;39153;52.680;6.172;2024-03-25T03:16:59;5.90;99.90
53264;DHT22;39153;52.680;6.172;2024-03-25T03:19:25;5.30;99.90
53264;DHT22;39153;52.680;6.172;2024-03-25T03:21:51;5.20;99.90
53264;DHT22;39153;52.680;6.172;2024-03-25T03:24:17;5.30;99.90
53264;DHT22;39153;52.680;6.172;2024-03-25T03:26:44;5.10;99.90
53264;DHT22;39153;52.680;6.172;2024-03-25T03:29:10;5.30;99.90
53264;DHT22;39153;52.680;6.172;2024-03-25T03:31:36;5.10;99.90
53264;DHT22;39153;52.680;6.172;2024-03-25T03:34:02;5.30;99.90
53264;DHT22;39153;52.680;6.172;2024-03-25T03:36:28;5.10;99.90
53264;DHT22;39153;52.680;6.172;2024-03-25T03:38:54;5.10;99.90
53264;DHT22;39153;52.680;6.172;2024-03-25T03:41:20;5.10;99.90
53264;DHT22;39153;52.680;6.172;2024-03-25T03:43:46;5.10;99.90
53264;DHT22;39153;52.680;6.172;2024-03-25T03:46:12;4.90;99.90
53264;DHT22;39153;52.680;6.172;2024-03-25T03:48:38;5.00;99.90
53264;DHT22;39153;52.680;6.172;2024-03-25T03:51:08;5.10;99.90
53264;DHT22;39153;52.680;6.172;2024-03-25T03:53:34;4.90;99.90
53264;DHT22;39153;52.680;6.172;2024-03-25T03:56:02;5.00;99.90
53264;DHT22;39153;52.680;6.172;2024-03-25T03:58:29;4.90;99.90
53264;DHT22;39153;52.680;6.172;2024-03-25T04:00:55;4.80;99.90
53264;DHT22;39153;52.680;6.172;2024-03-25T04:03:21;4.80;99.90
53264;DHT22;39153;52.680;6.172;2024-03-25T04:05:46;5.00;99.90
53264;DHT22;39153;52.680;6.172;2024-03-25T04:08:12;4.80;99.90
53264;DHT22;39153;52.680;6.172;2024-03-25T04:10:38;4.90;99.90
53264;DHT22;39153;52.680;6.172;2024-03-25T04:13:04;5.00;99.90
53264;DHT22;39153;52.680;6.172;2024-03-25T04:15:37;4.80;99.90
53264;DHT22;39153;52.680;6.172;2024-03-25T04:18:03;4.90;99.90
53264;DHT22;39153;52.680;6.172;2024-03-25T04:20:30;4.80;99.90
53264;DHT22;39153;52.680;6.172;2024-03-25T04:23:01;5.00;99.90
53264;DHT22;39153;52.680;6.172;2024-03-25T04:25:26;4.80;99.90
53264;DHT22;39153;52.680;6.172;2024-03-25T04:27:52;4.80;99.90
53264;DHT22;39153;52.680;6.172;2024-03-25T04:30:18;5.00;99.90
53264;DHT22;39153;52.680;6.172;2024-03-25T04:32:44;4.90;99.90
53264;DHT22;39153;52.680;6.172;2024-03-25T04:35:10;5.10;99.90
53264;DHT22;39153;52.680;6.172;2024-03-25T04:37:36;5.00;99.90
53264;DHT22;39153;52.680;6.172;2024-03-25T04:40:02;4.90;99.90
53264;DHT22;39153;52.680;6.172;2024-03-25T04:42:28;4.80;99.90
53264;DHT22;39153;52.680;6.172;2024-03-25T04:44:54;4.90;99.90
53264;DHT22;39153;52.680;6.172;2024-03-25T04:47:20;4.90;99.90
53264;DHT22;39153;52.680;6.172;2024-03-25T04:49:46;5.00;99.90
53264;DHT22;39153;52.680;6.172;2024-03-25T04:52:12;4.90;99.90
53264;DHT22;39153;52.680;6.172;2024-03-25T04:54:44;4.70;99.90
53264;DHT22;39153;52.680;6.172;2024-03-25T04:57:10;4.70;99.90
53264;DHT22;39153;52.680;6.172;2024-03-25T04:59:35;4.90;99.90
53264;DHT22;39153;52.680;6.172;2024-03-25T05:02:01;4.60;99.90
53264;DHT22;39153;52.680;6.172;2024-03-25T05:04:27;4.80;99.90
53264;DHT22;39153;52.680;6.172;2024-03-25T05:06:53;4.50;99.90
53264;DHT22;39153;52.680;6.172;2024-03-25T05:09:19;4.70;99.90
53264;DHT22;39153;52.680;6.172;2024-03-25T05:11:45;4.60;99.90
53264;DHT22;39153;52.680;6.172;2024-03-25T05:14:11;4.70;99.90
53264;DHT22;39153;52.680;6.172;2024-03-25T05:16:37;4.50;99.90
53264;DHT22;39153;52.680;6.172;2024-03-25T05:19:03;4.60;99.90
53264;DHT22;39153;52.680;6.172;2024-03-25T05:21:32;4.50;99.90
53264;DHT22;39153;52.680;6.172;2024-03-25T05:23:58;4.50;99.90
53264;DHT22;39153;52.680;6.172;2024-03-25T05:26:24;4.60;99.90
53264;DHT22;39153;52.680;6.172;2024-03-25T05:28:56;4.40;99.90
53264;DHT22;39153;52.680;6.172;2024-03-25T05:31:23;4.70;99.90
53264;DHT22;39153;52.680;6.172;2024-03-25T05:33:49;4.60;99.90
53264;DHT22;39153;52.680;6.172;2024-03-25T05:36:15;4.70;99.90
53264;DHT22;39153;52.680;6.172;2024-03-25T05:38:41;4.20;99.90
53264;DHT22;39153;52.680;6.172;2024-03-25T05:41:10;4.30;99.90
53264;DHT22;39153;52.680;6.172;2024-03-25T05:43:36;4.40;99.90
53264;DHT22;39153;52.680;6.172;2024-03-25T05:46:02;4.20;99.90
53264;DHT22;39153;52.680;6.172;2024-03-25T05:48:28;4.20;99.90
53264;DHT22;39153;52.680;6.172;2024-03-25T05:51:12;4.30;99.90
53264;DHT22;39153;52.680;6.172;2024-03-25T05:53:38;4.20;99.90
53264;DHT22;39153;52.680;6.172;2024-03-25T05:56:03;4.40;99.90
53264;DHT22;39153;52.680;6.172;2024-03-25T05:58:29;4.00;99.90
53264;DHT22;39153;52.680;6.172;2024-03-25T06:00:55;4.10;99.90
53264;DHT22;39153;52.680;6.172;2024-03-25T06:03:21;4.20;99.90
53264;DHT22;39153;52.680;6.172;2024-03-25T06:05:48;4.10;99.90
53264;DHT22;39153;52.680;6.172;2024-03-25T06:08:14;4.30;99.90
53264;DHT22;39153;52.680;6.172;2024-03-25T06:10:52;4.20;99.90
53264;DHT22;39153;52.680;6.172;2024-03-25T06:13:18;4.30;99.90
53264;DHT22;39153;52.680;6.172;2024-03-25T06:15:44;4.00;99.90
53264;DHT22;39153;52.680;6.172;2024-03-25T06:18:11;3.90;99.90
53264;DHT22;39153;52.680;6.172;2024-03-25T06:20:37;4.10;99.90
53264;DHT22;39153;52.680;6.172;2024-03-25T06:23:03;3.90;99.90
53264;DHT22;39153;52.680;6.172;2024-03-25T06:25:30;4.00;99.90
53264;DHT22;39153;52.680;6.172;2024-03-25T06:27:55;4.10;99.90
53264;DHT22;39153;52.680;6.172;2024-03-25T06:30:21;4.20;99.90
53264;DHT22;39153;52.680;6.172;2024-03-25T06:33:05;3.90;99.90
53264;DHT22;39153;52.680;6.172;2024-03-25T06:35:50;3.80;99.90
53264;DHT22;39153;52.680;6.172;2024-03-25T06:38:15;4.00;99.90
53264;DHT22;39153;52.680;6.172;2024-03-25T06:40:41;4.30;99.90
53264;DHT22;39153;52.680;6.172;2024-03-25T06:43:07;4.20;99.90
53264;DHT22;39153;52.680;6.172;2024-03-25T06:45:32;4.50;99.90
53264;DHT22;39153;52.680;6.172;2024-03-25T06:47:58;3.80;99.90
53264;DHT22;39153;52.680;6.172;2024-03-25T06:50:24;3.90;99.90
53264;DHT22;39153;52.680;6.172;2024-03-25T06:52:50;4.10;99.90
53264;DHT22;39153;52.680;6.172;2024-03-25T06:55:16;4.50;99.90
53264;DHT22;39153;52.680;6.172;2024-03-25T06:57:42;4.50;99.90
53264;DHT22;39153;52.680;6.172;2024-03-25T07:00:08;4.40;99.90
53264;DHT22;39153;52.680;6.172;2024-03-25T07:02:39;4.20;99.90
53264;DHT22;39153;52.680;6.172;2024-03-25T07:05:05;4.30;99.90
53264;DHT22;39153;52.680;6.172;2024-03-25T07:07:31;4.40;99.90
53264;DHT22;39153;52.680;6.172;2024-03-25T07:09:57;4.70;99.90
53264;DHT22;39153;52.680;6.172;2024-03-25T07:12:22;4.90;99.90
53264;DHT22;39153;52.680;6.172;2024-03-25T07:14:48;4.60;99.90
53264;DHT22;39153;52.680;6.172;2024-03-25T07:17:14;4.80;99.90
53264;DHT22;39153;52.680;6.172;2024-03-25T07:19:40;4.80;99.90
53264;DHT22;39153;52.680;6.172;2024-03-25T07:22:05;5.10;99.90
53264;DHT22;39153;52.680;6.172;2024-03-25T07:24:32;5.30;99.90
53264;DHT22;39153;52.680;6.172;2024-03-25T07:26:58;4.90;99.90
53264;DHT22;39153;52.680;6.172;2024-03-25T07:29:23;5.40;99.90
53264;DHT22;39153;52.680;6.172;2024-03-25T07:31:49;5.20;99.90
53264;DHT22;39153;52.680;6.172;2024-03-25T07:34:15;5.30;99.90
53264;DHT22;39153;52.680;6.172;2024-03-25T07:36:40;5.50;99.90
53264;DHT22;39153;52.680;6.172;2024-03-25T07:39:06;5.50;99.90
53264;DHT22;39153;52.680;6.172;2024-03-25T07:41:32;5.30;99.90
53264;DHT22;39153;52.680;6.172;2024-03-25T07:43:58;5.60;99.90
53264;DHT22;39153;52.680;6.172;2024-03-25T07:46:24;5.70;99.90
53264;DHT22;39153;52.680;6.172;2024-03-25T07:48:49;5.60;99.90
53264;DHT22;39153;52.680;6.172;2024-03-25T07:51:15;5.80;99.90
53264;DHT22;39153;52.680;6.172;2024-03-25T07:53:41;5.60;99.90
53264;DHT22;39153;52.680;6.172;2024-03-25T07:56:07;5.60;99.90
53264;DHT22;39153;52.680;6.172;2024-03-25T07:58:32;5.70;99.90
53264;DHT22;39153;52.680;6.172;2024-03-25T08:00:58;6.00;99.90
53264;DHT22;39153;52.680;6.172;2024-03-25T08:03:24;6.10;99.90
53264;DHT22;39153;52.680;6.172;2024-03-25T08:05:50;6.00;99.90
53264;DHT22;39153;52.680;6.172;2024-03-25T08:08:16;5.90;99.90
53264;DHT22;39153;52.680;6.172;2024-03-25T08:10:42;6.10;99.90
53264;DHT22;39153;52.680;6.172;2024-03-25T08:13:07;6.20;99.90
53264;DHT22;39153;52.680;6.172;2024-03-25T08:15:33;6.30;99.90
53264;DHT22;39153;52.680;6.172;2024-03-25T08:17:59;6.60;99.90
53264;DHT22;39153;52.680;6.172;2024-03-25T08:20:24;6.50;99.90
53264;DHT22;39153;52.680;6.172;2024-03-25T08:22:50;6.60;99.90
53264;DHT22;39153;52.680;6.172;2024-03-25T08:25:16;6.60;99.90
53264;DHT22;39153;52.680;6.172;2024-03-25T08:27:41;6.80;99.90
53264;DHT22;39153;52.680;6.172;2024-03-25T08:30:08;6.80;99.90
53264;DHT22;39153;52.680;6.172;2024-03-25T08:32:33;6.90;99.90
53264;DHT22;39153;52.680;6.172;2024-03-25T08:34:59;6.90;99.90
53264;DHT22;39153;52.680;6.172;2024-03-25T08:37:25;7.20;99.90
53264;DHT22;39153;52.680;6.172;2024-03-25T08:39:50;7.20;99.90
53264;DHT22;39153;52.680;6.172;2024-03-25T08:42:16;7.40;99.90
53264;DHT22;39153;52.680;6.172;2024-03-25T08:44:42;7.50;99.90
53264;DHT22;39153;52.680;6.172;2024-03-25T08:47:07;7.70;99.90
53264;DHT22;39153;52.680;6.172;2024-03-25T08:49:33;7.70;99.90
53264;DHT22;39153;52.680;6.172;2024-03-25T08:51:58;7.70;99.90
53264;DHT22;39153;52.680;6.172;2024-03-25T08:54:24;7.80;99.90
53264;DHT22;39153;52.680;6.172;2024-03-25T08:56:50;7.90;99.90
53264;DHT22;39153;52.680;6.172;2024-03-25T08:59:15;7.70;99.90
53264;DHT22;39153;52.680;6.172;2024-03-25T09:01:41;7.70;99.90
53264;DHT22;39153;52.680;6.172;2024-03-25T09:04:07;7.90;99.90
53264;DHT22;39153;52.680;6.172;2024-03-25T09:06:32;7.70;99.90
53264;DHT22;39153;52.680;6.172;2024-03-25T09:08:58;7.80;99.90
53264;DHT22;39153;52.680;6.172;2024-03-25T09:11:42;7.80;99.90
53264;DHT22;39153;52.680;6.172;2024-03-25T09:14:08;7.90;99.90
53264;DHT22;39153;52.680;6.172;2024-03-25T09:16:34;8.00;99.90
53264;DHT22;39153;52.680;6.172;2024-03-25T09:19:00;8.00;99.90
53264;DHT22;39153;52.680;6.172;2024-03-25T09:21:26;8.10;99.90
53264;DHT22;39153;52.680;6.172;2024-03-25T09:23:52;7.90;99.90
53264;DHT22;39153;52.680;6.172;2024-03-25T09:26:18;7.90;99.90
53264;DHT22;39153;52.680;6.172;2024-03-25T09:28:44;7.90;99.90
53264;DHT22;39153;52.680;6.172;2024-03-25T09:31:10;7.90;99.90
53264;DHT22;39153;52.680;6.172;2024-03-25T09:33:35;8.00;99.90
53264;DHT22;39153;52.680;6.172;2024-03-25T09:36:01;8.20;99.90
53264;DHT22;39153;52.680;6.172;2024-03-25T09:38:27;8.50;99.90
53264;DHT22;39153;52.680;6.172;2024-03-25T09:40:53;8.60;99.90
53264;DHT22;39153;52.680;6.172;2024-03-25T09:43:25;8.70;99.90
53264;DHT22;39153;52.680;6.172;2024-03-25T09:45:51;8.70;99.90
53264;DHT22;39153;52.680;6.172;2024-03-25T09:48:18;8.70;99.90
53264;DHT22;39153;52.680;6.172;2024-03-25T09:50:47;8.80;99.90
53264;DHT22;39153;52.680;6.172;2024-03-25T09:53:14;8.90;99.90
53264;DHT22;39153;52.680;6.172;2024-03-25T09:55:40;9.10;99.90
53264;DHT22;39153;52.680;6.172;2024-03-25T09:58:06;9.20;99.90
53264;DHT22;39153;52.680;6.172;2024-03-25T10:00:31;9.30;99.90
53264;DHT22;39153;52.680;6.172;2024-03-25T10:02:57;9.30;99.90
53264;DHT22;39153;52.680;6.172;2024-03-25T10:05:23;9.20;99.90
53264;DHT22;39153;52.680;6.172;2024-03-25T10:07:49;9.10;99.90
53264;DHT22;39153;52.680;6.172;2024-03-25T10:10:21;9.10;99.90
53264;DHT22;39153;52.680;6.172;2024-03-25T10:12:47;9.20;99.90
53264;DHT22;39153;52.680;6.172;2024-03-25T10:15:16;9.20;99.90
53264;DHT22;39153;52.680;6.172;2024-03-25T10:17:42;9.50;99.90
53264;DHT22;39153;52.680;6.172;2024-03-25T10:20:13;9.60;99.90
53264;DHT22;39153;52.680;6.172;2024-03-25T10:22:43;9.70;99.90
53264;DHT22;39153;52.680;6.172;2024-03-25T10:25:23;9.80;99.90
53264;DHT22;39153;52.680;6.172;2024-03-25T10:28:00;9.90;99.90
53264;DHT22;39153;52.680;6.172;2024-03-25T10:30:27;10.00;99.90
53264;DHT22;39153;52.680;6.172;2024-03-25T10:33:03;10.10;99.90
53264;DHT22;39153;52.680;6.172;2024-03-25T10:35:30;10.30;99.90
53264;DHT22;39153;52.680;6.172;2024-03-25T10:38:04;10.40;99.90
53264;DHT22;39153;52.680;6.172;2024-03-25T10:40:35;10.40;99.90
53264;DHT22;39153;52.680;6.172;2024-03-25T10:45:37;10.30;99.90
53264;DHT22;39153;52.680;6.172;2024-03-25T10:48:12;10.30;99.90
53264;DHT22;39153;52.680;6.172;2024-03-25T10:50:42;10.30;99.90
53264;DHT22;39153;52.680;6.172;2024-03-25T10:53:10;10.40;99.90
53264;DHT22;39153;52.680;6.172;2024-03-25T10:55:37;10.30;99.90
53264;DHT22;39153;52.680;6.172;2024-03-25T10:58:04;10.30;99.90
53264;DHT22;39153;52.680;6.172;2024-03-25T11:00:30;10.20;99.90
53264;DHT22;39153;52.680;6.172;2024-03-25T11:02:56;10.20;99.90
53264;DHT22;39153;52.680;6.172;2024-03-25T11:05:23;10.30;99.90
53264;DHT22;39153;52.680;6.172;2024-03-25T11:07:49;10.50;99.90
53264;DHT22;39153;52.680;6.172;2024-03-25T11:10:15;10.60;99.90
53264;DHT22;39153;52.680;6.172;2024-03-25T11:12:42;10.50;99.90
53264;DHT22;39153;52.680;6.172;2024-03-25T11:15:08;10.40;99.90
53264;DHT22;39153;52.680;6.172;2024-03-25T11:17:35;10.50;99.90
53264;DHT22;39153;52.680;6.172;2024-03-25T11:20:15;10.60;99.90
53264;DHT22;39153;52.680;6.172;2024-03-25T11:22:51;10.80;99.90
53264;DHT22;39153;52.680;6.172;2024-03-25T11:25:20;10.90;99.90
53264;DHT22;39153;52.680;6.172;2024-03-25T11:27:46;11.10;99.90
53264;DHT22;39153;52.680;6.172;2024-03-25T11:30:13;11.20;99.90
53264;DHT22;39153;52.680;6.172;2024-03-25T11:32:52;11.20;99.90
53264;DHT22;39153;52.680;6.172;2024-03-25T11:35:19;11.30;99.90
53264;DHT22;39153;52.680;6.172;2024-03-25T11:37:45;11.40;99.90
53264;DHT22;39153;52.680;6.172;2024-03-25T11:40:12;11.40;99.90
53264;DHT22;39153;52.680;6.172;2024-03-25T11:42:43;11.50;99.90
53264;DHT22;39153;52.680;6.172;2024-03-25T11:45:17;11.50;99.90
53264;DHT22;39153;52.680;6.172;2024-03-25T11:47:44;11.60;99.90
53264;DHT22;39153;52.680;6.172;2024-03-25T11:50:12;11.50;99.90
53264;DHT22;39153;52.680;6.172;2024-03-25T11:52:38;11.50;99.90
53264;DHT22;39153;52.680;6.172;2024-03-25T11:55:04;11.10;99.90
53264;DHT22;39153;52.680;6.172;2024-03-25T11:57:30;11.40;99.90
53264;DHT22;39153;52.680;6.172;2024-03-25T11:59:58;11.40;99.90
53264;DHT22;39153;52.680;6.172;2024-03-25T12:02:24;11.40;99.90
53264;DHT22;39153;52.680;6.172;2024-03-25T12:04:50;11.50;99.90
53264;DHT22;39153;52.680;6.172;2024-03-25T12:07:16;11.50;99.90
53264;DHT22;39153;52.680;6.172;2024-03-25T12:09:41;11.50;99.90
53264;DHT22;39153;52.680;6.172;2024-03-25T12:12:26;11.50;99.90
53264;DHT22;39153;52.680;6.172;2024-03-25T12:14:53;11.60;99.90
53264;DHT22;39153;52.680;6.172;2024-03-25T12:17:19;11.70;99.90
53264;DHT22;39153;52.680;6.172;2024-03-25T12:20:08;11.70;99.90
53264;DHT22;39153;52.680;6.172;2024-03-25T12:22:38;11.90;99.90
53264;DHT22;39153;52.680;6.172;2024-03-25T12:25:04;12.00;99.90
53264;DHT22;39153;52.680;6.172;2024-03-25T12:27:36;12.10;99.90
53264;DHT22;39153;52.680;6.172;2024-03-25T12:30:10;12.20;99.90
53264;DHT22;39153;52.680;6.172;2024-03-25T12:32:41;12.40;99.90
53264;DHT22;39153;52.680;6.172;2024-03-25T12:35:14;12.20;99.90
53264;DHT22;39153;52.680;6.172;2024-03-25T12:37:45;12.10;99.90
53264;DHT22;39153;52.680;6.172;2024-03-25T12:40:32;11.90;99.90
53264;DHT22;39153;52.680;6.172;2024-03-25T12:42:58;11.80;99.90
53264;DHT22;39153;52.680;6.172;2024-03-25T12:45:24;11.90;99.90
53264;DHT22;39153;52.680;6.172;2024-03-25T12:47:50;12.10;99.90
53264;DHT22;39153;52.680;6.172;2024-03-25T12:50:16;12.20;99.90
53264;DHT22;39153;52.680;6.172;2024-03-25T12:52:42;12.20;99.90
53264;DHT22;39153;52.680;6.172;2024-03-25T12:55:08;12.20;99.90
53264;DHT22;39153;52.680;6.172;2024-03-25T12:57:35;12.20;99.90
53264;DHT22;39153;52.680;6.172;2024-03-25T13:00:01;12.20;99.90
53264;DHT22;39153;52.680;6.172;2024-03-25T13:02:29;12.20;99.90
53264;DHT22;39153;52.680;6.172;2024-03-25T13:04:54;12.30;99.90
53264;DHT22;39153;52.680;6.172;2024-03-25T13:07:20;12.40;99.90
53264;DHT22;39153;52.680;6.172;2024-03-25T13:09:46;12.60;99.90
53264;DHT22;39153;52.680;6.172;2024-03-25T13:12:11;12.80;99.90
53264;DHT22;39153;52.680;6.172;2024-03-25T13:14:37;13.00;99.90
53264;DHT22;39153;52.680;6.172;2024-03-25T13:17:03;13.10;99.90
53264;DHT22;39153;52.680;6.172;2024-03-25T13:19:28;13.10;99.90
53264;DHT22;39153;52.680;6.172;2024-03-25T13:21:57;13.20;99.90
53264;DHT22;39153;52.680;6.172;2024-03-25T13:24:23;13.40;99.90
53264;DHT22;39153;52.680;6.172;2024-03-25T13:26:49;13.60;99.90
53264;DHT22;39153;52.680;6.172;2024-03-25T13:29:14;13.80;99.90
53264;DHT22;39153;52.680;6.172;2024-03-25T13:31:40;14.00;99.90
53264;DHT22;39153;52.680;6.172;2024-03-25T13:34:06;14.10;99.90
53264;DHT22;39153;52.680;6.172;2024-03-25T13:36:31;14.20;99.90
53264;DHT22;39153;52.680;6.172;2024-03-25T13:38:57;14.60;99.90
53264;DHT22;39153;52.680;6.172;2024-03-25T13:41:23;14.80;99.90
53264;DHT22;39153;52.680;6.172;2024-03-25T13:43:50;15.00;99.90
53264;DHT22;39153;52.680;6.172;2024-03-25T13:46:16;15.10;99.90
53264;DHT22;39153;52.680;6.172;2024-03-25T13:48:42;15.30;99.90
53264;DHT22;39153;52.680;6.172;2024-03-25T13:51:07;15.40;99.90
53264;DHT22;39153;52.680;6.172;2024-03-25T13:53:33;15.60;99.90
53264;DHT22;39153;52.680;6.172;2024-03-25T13:55:59;15.70;99.90
53264;DHT22;39153;52.680;6.172;2024-03-25T13:58:26;15.70;99.90
53264;DHT22;39153;52.680;6.172;2024-03-25T14:00:51;15.40;99.90
53264;DHT22;39153;52.680;6.172;2024-03-25T14:03:17;15.20;99.90
53264;DHT22;39153;52.680;6.172;2024-03-25T14:05:44;14.90;99.90
53264;DHT22;39153;52.680;6.172;2024-03-25T14:08:10;14.60;99.90
53264;DHT22;39153;52.680;6.172;2024-03-25T14:10:36;14.70;99.90
53264;DHT22;39153;52.680;6.172;2024-03-25T14:13:02;15.00;99.90
53264;DHT22;39153;52.680;6.172;2024-03-25T14:15:29;15.30;99.90
53264;DHT22;39153;52.680;6.172;2024-03-25T14:17:54;15.60;99.90
53264;DHT22;39153;52.680;6.172;2024-03-25T14:20:20;15.70;99.90
53264;DHT22;39153;52.680;6.172;2024-03-25T14:22:46;15.80;99.90
53264;DHT22;39153;52.680;6.172;2024-03-25T14:25:11;16.10;99.90
53264;DHT22;39153;52.680;6.172;2024-03-25T14:27:37;16.30;99.90
53264;DHT22;39153;52.680;6.172;2024-03-25T14:30:03;16.40;99.90
53264;DHT22;39153;52.680;6.172;2024-03-25T14:32:29;16.50;99.90
53264;DHT22;39153;52.680;6.172;2024-03-25T14:34:54;16.60;99.90
53264;DHT22;39153;52.680;6.172;2024-03-25T14:37:22;16.70;99.90
53264;DHT22;39153;52.680;6.172;2024-03-25T14:39:47;16.80;99.90
53264;DHT22;39153;52.680;6.172;2024-03-25T14:42:13;16.70;99.90
53264;DHT22;39153;52.680;6.172;2024-03-25T14:44:39;16.40;99.90
53264;DHT22;39153;52.680;6.172;2024-03-25T14:47:05;16.00;99.90
53264;DHT22;39153;52.680;6.172;2024-03-25T14:49:31;15.70;99.90
53264;DHT22;39153;52.680;6.172;2024-03-25T14:51:57;15.40;99.90
53264;DHT22;39153;52.680;6.172;2024-03-25T14:54:23;15.40;99.90
53264;DHT22;39153;52.680;6.172;2024-03-25T14:56:49;15.40;99.90
53264;DHT22;39153;52.680;6.172;2024-03-25T14:59:15;15.50;99.90
53264;DHT22;39153;52.680;6.172;2024-03-25T15:01:41;15.50;99.90
53264;DHT22;39153;52.680;6.172;2024-03-25T15:04:06;15.60;99.90
53264;DHT22;39153;52.680;6.172;2024-03-25T15:06:33;15.50;99.90
53264;DHT22;39153;52.680;6.172;2024-03-25T15:08:59;15.40;99.90
53264;DHT22;39153;52.680;6.172;2024-03-25T15:11:25;15.30;99.90
53264;DHT22;39153;52.680;6.172;2024-03-25T15:13:52;15.30;99.90
53264;DHT22;39153;52.680;6.172;2024-03-25T15:16:18;15.20;99.90
53264;DHT22;39153;52.680;6.172;2024-03-25T15:18:43;15.00;99.90
53264;DHT22;39153;52.680;6.172;2024-03-25T15:21:09;14.70;99.90
53264;DHT22;39153;52.680;6.172;2024-03-25T15:23:35;14.40;99.90
53264;DHT22;39153;52.680;6.172;2024-03-25T15:26:01;14.30;99.90
53264;DHT22;39153;52.680;6.172;2024-03-25T15:28:27;14.30;99.90
53264;DHT22;39153;52.680;6.172;2024-03-25T15:30:57;14.30;99.90
53264;DHT22;39153;52.680;6.172;2024-03-25T15:33:23;14.30;99.90
53264;DHT22;39153;52.680;6.172;2024-03-25T15:35:49;14.30;99.90
53264;DHT22;39153;52.680;6.172;2024-03-25T15:38:15;14.30;99.90
53264;DHT22;39153;52.680;6.172;2024-03-25T15:40:41;14.30;99.90